createdAt,value
2019-03-20T00:00:18.640Z,9.60
2019-03-20T00:02:47.019Z,5.58
2019-03-20T00:05:15.277Z,15.78
2019-03-20T00:07:43.634Z,5.95
2019-03-20T00:10:11.954Z,7.58
2019-03-20T00:12:40.273Z,6.22
2019-03-20T00:15:11.359Z,5.47
2019-03-20T00:17:39.620Z,5.25
2019-03-20T00:20:10.051Z,4.65
2019-03-20T00:22:38.384Z,4.40
2019-03-20T00:25:08.409Z,4.25
2019-03-20T00:27:36.678Z,4.65
2019-03-20T00:30:11.195Z,4.03
2019-03-20T00:32:39.466Z,3.87
2019-03-20T00:35:07.756Z,4.33
2019-03-20T00:37:36.016Z,3.72
2019-03-20T00:40:07.347Z,3.52
2019-03-20T00:45:21.802Z,3.20
2019-03-20T00:47:50.079Z,3.70
2019-03-20T00:50:19.310Z,3.58
2019-03-20T00:52:47.913Z,2.70
2019-03-20T00:55:16.829Z,2.90
2019-03-20T00:57:45.372Z,3.27
2019-03-20T01:00:25.024Z,2.67
2019-03-20T01:02:53.457Z,2.70
2019-03-20T01:05:21.833Z,3.20
2019-03-20T01:07:50.081Z,3.30
2019-03-20T01:10:22.244Z,3.35
2019-03-20T01:12:50.645Z,3.58
2019-03-20T01:15:19.017Z,3.10
2019-03-20T01:17:47.266Z,3.40
2019-03-20T01:20:18.143Z,3.20
2019-03-20T01:22:46.478Z,3.60
2019-03-20T01:25:15.528Z,3.80
2019-03-20T01:27:43.823Z,3.60
2019-03-20T01:30:32.664Z,4.60
2019-03-20T01:33:02.172Z,3.50
2019-03-20T01:35:30.489Z,3.58
2019-03-20T01:37:58.782Z,4.15
2019-03-20T01:40:27.123Z,3.70
2019-03-20T01:42:55.569Z,4.28
2019-03-20T01:45:24.140Z,4.00
2019-03-20T01:47:52.483Z,3.35
2019-03-20T01:50:20.754Z,3.70
2019-03-20T01:52:49.029Z,3.50
2019-03-20T01:55:17.296Z,3.75
2019-03-20T01:57:45.599Z,4.20
2019-03-20T02:00:13.936Z,3.35
2019-03-20T02:02:42.202Z,3.72
2019-03-20T02:05:10.681Z,3.37
2019-03-20T02:07:38.972Z,4.00
2019-03-20T02:10:14.765Z,3.70
2019-03-20T02:12:43.044Z,3.42
2019-03-20T02:15:13.162Z,3.55
2019-03-20T02:17:41.562Z,3.22
2019-03-20T02:20:12.433Z,3.35
2019-03-20T02:22:40.838Z,3.90
2019-03-20T02:25:10.431Z,3.20
2019-03-20T02:27:38.738Z,3.10
2019-03-20T02:30:13.471Z,3.00
2019-03-20T02:32:42.081Z,2.80
2019-03-20T02:35:10.502Z,2.60
2019-03-20T02:37:38.851Z,3.12
2019-03-20T02:40:09.885Z,3.10
2019-03-20T02:42:38.226Z,2.50
2019-03-20T02:45:10.191Z,3.08
2019-03-20T02:47:38.525Z,3.00
2019-03-20T02:50:08.968Z,3.00
2019-03-20T02:52:37.232Z,3.23
2019-03-20T02:55:08.139Z,2.72
2019-03-20T02:57:36.552Z,2.42
2019-03-20T03:00:18.967Z,2.27
2019-03-20T03:02:47.229Z,2.33
2019-03-20T03:05:15.674Z,2.85
2019-03-20T03:07:43.943Z,4.03
2019-03-20T03:10:15.698Z,5.83
2019-03-20T03:12:44.327Z,6.30
2019-03-20T03:15:13.506Z,9.88
2019-03-20T03:17:41.848Z,10.35
2019-03-20T03:20:11.989Z,4.58
2019-03-20T03:22:40.235Z,4.40
2019-03-20T03:25:09.473Z,4.47
2019-03-20T03:27:37.735Z,5.08
2019-03-20T03:30:11.831Z,5.35
2019-03-20T03:32:40.154Z,5.70
2019-03-20T03:35:08.696Z,5.90
2019-03-20T03:37:37.047Z,5.58
2019-03-20T03:40:13.636Z,6.12
2019-03-20T03:42:42.187Z,7.22
2019-03-20T03:45:12.680Z,6.47
2019-03-20T03:47:41.122Z,5.40
2019-03-20T03:50:10.027Z,7.00
2019-03-20T03:52:38.355Z,5.10
2019-03-20T03:55:08.384Z,7.33
2019-03-20T03:57:36.730Z,5.80
2019-03-20T04:00:08.295Z,5.78
2019-03-20T04:02:36.649Z,4.78
2019-03-20T04:05:05.387Z,5.37
2019-03-20T04:07:33.852Z,5.15
2019-03-20T04:10:02.268Z,4.58
2019-03-20T04:12:30.590Z,4.42
2019-03-20T04:14:58.899Z,4.53
2019-03-20T04:17:27.450Z,4.00
2019-03-20T04:19:55.701Z,3.95
2019-03-20T04:22:23.994Z,3.85
2019-03-20T04:24:52.517Z,3.98
2019-03-20T04:27:20.786Z,3.87
2019-03-20T04:29:49.051Z,4.40
2019-03-20T04:32:17.341Z,3.80
2019-03-20T04:34:45.822Z,3.35
2019-03-20T04:37:14.111Z,3.77
2019-03-20T04:39:42.539Z,4.55
2019-03-20T04:42:10.840Z,3.27
2019-03-20T04:44:39.126Z,3.35
2019-03-20T04:47:07.379Z,2.80
2019-03-20T04:49:35.661Z,2.90
2019-03-20T04:52:03.928Z,3.08
2019-03-20T04:54:32.275Z,3.15
2019-03-20T04:57:00.709Z,3.45
2019-03-20T04:59:29.000Z,2.60
2019-03-20T05:01:57.346Z,3.10
2019-03-20T05:04:25.698Z,3.33
2019-03-20T05:06:58.859Z,3.20
2019-03-20T05:09:24.139Z,3.72
2019-03-20T05:11:52.454Z,3.27
2019-03-20T05:14:20.741Z,3.52
2019-03-20T05:16:49.145Z,3.20
2019-03-20T05:19:17.457Z,5.53
2019-03-20T05:21:45.750Z,4.90
2019-03-20T05:24:14.032Z,4.65
2019-03-20T05:26:42.351Z,4.08
2019-03-20T05:29:10.609Z,4.83
2019-03-20T05:31:38.887Z,5.25
2019-03-20T05:34:07.141Z,8.05
2019-03-20T05:36:35.836Z,12.45
2019-03-20T05:39:06.309Z,8.15
2019-03-20T05:41:34.615Z,5.17
2019-03-20T05:44:02.981Z,6.90
2019-03-20T05:46:31.276Z,5.08
2019-03-20T05:48:59.612Z,5.55
2019-03-20T05:51:28.049Z,4.83
2019-03-20T05:53:56.435Z,4.83
2019-03-20T05:56:24.789Z,5.20
2019-03-20T05:58:53.173Z,5.47
2019-03-20T06:01:21.508Z,5.72
2019-03-20T06:03:49.770Z,5.95
2019-03-20T06:06:18.067Z,6.30
2019-03-20T06:08:46.307Z,6.92
2019-03-20T06:11:14.684Z,9.28
2019-03-20T06:13:43.007Z,15.90
2019-03-20T06:16:11.307Z,7.55
2019-03-20T06:18:39.923Z,7.37
2019-03-20T06:21:08.238Z,9.13
2019-03-20T06:23:36.538Z,6.42
2019-03-20T06:26:04.885Z,5.95
2019-03-20T06:28:33.186Z,5.60
2019-03-20T06:31:01.472Z,6.37
2019-03-20T06:33:29.745Z,7.20
2019-03-20T06:35:58.017Z,6.17
2019-03-20T06:38:26.296Z,6.00
2019-03-20T06:40:54.628Z,7.20
2019-03-20T06:43:22.971Z,6.12
2019-03-20T06:45:51.223Z,7.10
2019-03-20T06:48:19.848Z,7.05
2019-03-20T06:50:48.130Z,7.80
2019-03-20T06:53:16.449Z,7.35
2019-03-20T06:55:44.810Z,6.80
2019-03-20T06:58:13.102Z,8.20
2019-03-20T07:00:56.389Z,5.55
2019-03-20T07:03:37.487Z,7.85
2019-03-20T07:06:14.674Z,5.40
2019-03-20T07:08:52.063Z,7.15
2019-03-20T07:11:19.436Z,6.08
2019-03-20T07:13:47.697Z,6.70
2019-03-20T07:16:15.970Z,7.53
2019-03-20T07:18:44.252Z,6.53
2019-03-20T07:21:12.592Z,6.85
2019-03-20T07:23:40.886Z,6.37
2019-03-20T07:26:09.151Z,11.00
2019-03-20T07:28:37.438Z,8.08
2019-03-20T07:31:14.671Z,5.85
2019-03-20T07:33:35.774Z,7.53
2019-03-20T07:36:04.042Z,7.33
2019-03-20T07:38:32.589Z,6.80
2019-03-20T07:41:00.887Z,6.83
2019-03-20T07:43:29.251Z,7.20
2019-03-20T07:45:57.640Z,6.42
2019-03-20T07:48:25.910Z,5.60
2019-03-20T07:50:54.256Z,7.35
2019-03-20T07:53:22.512Z,6.97
2019-03-20T07:55:50.837Z,6.12
2019-03-20T07:58:19.104Z,5.62
2019-03-20T08:00:47.392Z,5.62
2019-03-20T08:03:15.721Z,6.00
2019-03-20T08:05:44.279Z,6.17
2019-03-20T08:08:12.533Z,5.97
2019-03-20T08:10:40.835Z,6.00
2019-03-20T08:13:09.199Z,5.62
2019-03-20T08:15:37.564Z,5.08
2019-03-20T08:18:05.833Z,5.00
2019-03-20T08:20:34.120Z,5.62
2019-03-20T08:23:02.490Z,6.00
2019-03-20T08:25:30.791Z,5.45
2019-03-20T08:27:59.076Z,4.90
2019-03-20T08:30:27.379Z,4.90
2019-03-20T08:32:55.715Z,4.87
2019-03-20T08:35:29.773Z,4.65
2019-03-20T08:37:58.244Z,5.17
2019-03-20T08:40:26.638Z,5.40
2019-03-20T08:42:54.971Z,5.42
2019-03-20T08:45:23.291Z,5.78
2019-03-20T08:47:51.654Z,4.75
2019-03-20T08:50:24.879Z,6.15
2019-03-20T08:52:53.152Z,5.70
2019-03-20T08:55:22.068Z,5.60
2019-03-20T08:57:50.346Z,6.12
2019-03-20T09:00:25.103Z,6.28
2019-03-20T09:02:53.423Z,6.37
2019-03-20T09:05:21.823Z,6.53
2019-03-20T09:07:50.171Z,6.97
2019-03-20T09:10:27.713Z,5.97
2019-03-20T09:12:56.006Z,6.28
2019-03-20T09:15:24.435Z,6.67
2019-03-20T09:17:52.790Z,5.90
2019-03-20T09:20:23.360Z,6.62
2019-03-20T09:22:51.636Z,5.92
2019-03-20T09:25:25.287Z,5.40
2019-03-20T09:27:53.757Z,5.95
2019-03-20T09:30:24.120Z,5.20
2019-03-20T09:32:52.402Z,5.77
2019-03-20T09:35:20.677Z,6.70
2019-03-20T09:37:52.275Z,5.22
2019-03-20T09:40:23.834Z,5.40
2019-03-20T09:42:52.405Z,4.95
2019-03-20T09:45:21.542Z,5.47
2019-03-20T09:47:49.794Z,5.53
2019-03-20T09:50:22.798Z,5.53
2019-03-20T09:52:51.059Z,4.33
2019-03-20T09:55:19.362Z,5.28
2019-03-20T09:57:47.647Z,5.80
2019-03-20T10:00:22.285Z,5.83
2019-03-20T10:02:50.546Z,4.55
2019-03-20T10:05:18.933Z,4.47
2019-03-20T10:07:47.328Z,5.17
2019-03-20T10:10:27.916Z,5.00
2019-03-20T10:12:56.243Z,4.75
2019-03-20T10:15:27.795Z,4.40
2019-03-20T10:17:56.067Z,4.40
2019-03-20T10:20:24.379Z,4.40
2019-03-20T10:22:52.907Z,3.42
2019-03-20T10:25:21.245Z,3.47
2019-03-20T10:27:51.819Z,3.50
2019-03-20T10:30:23.543Z,4.08
2019-03-20T10:32:51.932Z,3.80
2019-03-20T10:35:20.306Z,3.72
2019-03-20T10:37:48.598Z,3.65
2019-03-20T10:40:21.470Z,3.40
2019-03-20T10:42:50.765Z,3.37
2019-03-20T10:45:19.675Z,3.10
2019-03-20T10:47:48.034Z,3.52
2019-03-20T10:50:21.582Z,3.00
2019-03-20T10:52:50.034Z,2.70
2019-03-20T10:55:18.295Z,3.52
2019-03-20T10:57:46.626Z,3.15
2019-03-20T11:00:19.622Z,3.22
2019-03-20T11:02:47.996Z,3.08
2019-03-20T11:05:16.973Z,3.60
2019-03-20T11:07:45.366Z,3.42
2019-03-20T11:10:23.278Z,3.10
2019-03-20T11:12:51.654Z,3.35
2019-03-20T11:15:21.013Z,3.33
2019-03-20T11:17:49.341Z,2.90
2019-03-20T11:20:18.588Z,3.08
2019-03-20T11:22:47.086Z,2.45
2019-03-20T11:25:27.372Z,3.52
2019-03-20T11:27:55.660Z,3.08
2019-03-20T11:30:30.999Z,3.05
2019-03-20T11:32:59.388Z,3.47
2019-03-20T11:35:27.652Z,3.22
2019-03-20T11:37:55.924Z,3.67
2019-03-20T11:40:35.009Z,2.90
2019-03-20T11:43:03.446Z,3.33
2019-03-20T11:45:31.697Z,3.67
2019-03-20T11:48:00.093Z,3.30
2019-03-20T11:50:36.399Z,3.52
2019-03-20T11:53:05.939Z,3.62
2019-03-20T11:55:34.202Z,2.87
2019-03-20T11:58:02.618Z,3.58
2019-03-20T12:00:31.207Z,2.52
2019-03-20T12:02:59.483Z,2.75
2019-03-20T12:05:27.865Z,3.00
2019-03-20T12:07:56.153Z,2.72
2019-03-20T12:10:28.616Z,2.67
2019-03-20T12:12:56.982Z,2.90
2019-03-20T12:15:25.375Z,2.75
2019-03-20T12:17:53.699Z,2.40
2019-03-20T12:20:23.064Z,2.50
2019-03-20T12:22:51.784Z,2.65
2019-03-20T12:25:28.570Z,2.77
2019-03-20T12:27:57.382Z,3.15
2019-03-20T12:30:31.576Z,3.05
2019-03-20T12:32:59.839Z,2.25
2019-03-20T12:35:30.866Z,2.50
2019-03-20T12:37:59.172Z,2.27
2019-03-20T12:40:29.608Z,2.37
2019-03-20T12:42:58.037Z,2.62
2019-03-20T12:45:31.474Z,2.20
2019-03-20T12:47:59.852Z,2.27
2019-03-20T12:50:28.189Z,2.65
2019-03-20T12:52:56.536Z,2.77
2019-03-20T12:55:24.842Z,2.40
2019-03-20T12:57:53.143Z,2.20
2019-03-20T13:00:27.275Z,2.40
2019-03-20T13:02:55.305Z,2.40
2019-03-20T13:05:23.625Z,2.40
2019-03-20T13:07:51.918Z,2.50
2019-03-20T13:10:21.705Z,2.12
2019-03-20T13:12:50.053Z,2.02
2019-03-20T13:15:27.932Z,2.20
2019-03-20T13:17:56.837Z,1.70
2019-03-20T13:20:25.365Z,1.85
2019-03-20T13:23:02.649Z,2.62
2019-03-20T13:25:30.911Z,1.80
2019-03-20T13:27:59.275Z,2.10
2019-03-20T13:30:42.556Z,2.00
2019-03-20T13:33:10.986Z,3.47
2019-03-20T13:35:39.325Z,3.10
2019-03-20T13:38:08.080Z,2.12
2019-03-20T13:40:36.367Z,1.98
2019-03-20T13:43:05.024Z,2.35
2019-03-20T13:45:33.292Z,2.15
2019-03-20T13:48:01.573Z,2.47
2019-03-20T13:50:29.920Z,1.95
2019-03-20T13:52:58.303Z,2.35
2019-03-20T13:55:26.567Z,2.20
2019-03-20T13:57:54.861Z,2.40
2019-03-20T14:00:26.683Z,2.00
2019-03-20T14:02:55.066Z,2.10
2019-03-20T14:05:23.384Z,3.02
2019-03-20T14:07:51.670Z,2.58
2019-03-20T14:10:25.299Z,2.30
2019-03-20T14:12:54.073Z,2.30
2019-03-20T14:15:22.388Z,1.87
2019-03-20T14:17:50.683Z,2.30
2019-03-20T14:20:24.887Z,2.17
2019-03-20T14:22:53.543Z,1.92
2019-03-20T14:25:22.135Z,2.27
2019-03-20T14:27:51.361Z,1.85
2019-03-20T14:30:30.912Z,2.00
2019-03-20T14:32:59.190Z,2.27
2019-03-20T14:35:27.467Z,2.17
2019-03-20T14:37:55.861Z,2.05
2019-03-20T14:40:36.573Z,1.90
2019-03-20T14:43:05.337Z,1.92
2019-03-20T14:45:33.732Z,1.87
2019-03-20T14:48:02.087Z,1.80
2019-03-20T14:50:31.539Z,2.45
2019-03-20T14:52:59.824Z,2.12
2019-03-20T14:55:28.189Z,2.00
2019-03-20T14:57:56.541Z,1.77
2019-03-20T15:00:31.406Z,2.10
2019-03-20T15:02:59.891Z,2.15
2019-03-20T15:05:28.199Z,2.35
2019-03-20T15:07:56.453Z,2.27
2019-03-20T15:10:25.795Z,2.05
2019-03-20T15:12:54.627Z,2.80
2019-03-20T15:15:34.967Z,2.40
2019-03-20T15:18:03.264Z,1.67
2019-03-20T15:20:31.561Z,1.35
2019-03-20T15:22:59.831Z,1.75
2019-03-20T15:25:28.127Z,1.62
2019-03-20T15:27:56.413Z,2.10
2019-03-20T15:30:25.538Z,2.20
2019-03-20T15:32:53.935Z,1.50
2019-03-20T15:35:22.265Z,1.65
2019-03-20T15:37:50.536Z,2.00
2019-03-20T15:40:24.182Z,1.40
2019-03-20T15:42:52.472Z,1.85
2019-03-20T15:45:20.760Z,1.65
2019-03-20T15:47:49.118Z,1.52
2019-03-20T15:50:18.515Z,1.92
2019-03-20T15:52:46.802Z,1.40
2019-03-20T15:55:18.182Z,2.20
2019-03-20T15:57:46.639Z,2.40
2019-03-20T16:00:17.153Z,2.05
2019-03-20T16:02:45.901Z,2.20
2019-03-20T16:05:14.178Z,1.92
2019-03-20T16:07:42.547Z,2.05
2019-03-20T16:10:18.917Z,2.00
2019-03-20T16:12:47.186Z,1.70
2019-03-20T16:15:18.081Z,1.90
2019-03-20T16:17:46.457Z,1.70
2019-03-20T16:20:15.369Z,1.70
2019-03-20T16:22:43.705Z,2.62
2019-03-20T16:25:15.296Z,2.30
2019-03-20T16:27:43.980Z,2.12
2019-03-20T16:30:15.170Z,1.95
2019-03-20T16:32:43.550Z,1.85
2019-03-20T16:35:11.938Z,2.08
2019-03-20T16:37:40.282Z,1.90
2019-03-20T16:40:14.438Z,2.47
2019-03-20T16:42:44.337Z,2.12
2019-03-20T16:45:15.605Z,2.42
2019-03-20T16:47:43.933Z,1.80
2019-03-20T16:50:14.888Z,2.15
2019-03-20T16:52:43.943Z,1.87
2019-03-20T16:55:16.267Z,1.90
2019-03-20T16:57:44.604Z,2.20
2019-03-20T17:00:27.514Z,1.80
2019-03-20T17:02:55.839Z,2.37
2019-03-20T17:05:24.580Z,1.60
2019-03-20T17:07:52.857Z,1.80
2019-03-20T17:10:23.309Z,2.15
2019-03-20T17:12:51.654Z,2.17
2019-03-20T17:15:22.599Z,1.80
2019-03-20T17:17:51.058Z,1.60
2019-03-20T17:20:19.390Z,1.90
2019-03-20T17:22:47.698Z,2.42
2019-03-20T17:25:16.041Z,2.58
2019-03-20T17:27:44.306Z,2.35
2019-03-20T17:30:15.594Z,2.12
2019-03-20T17:32:44.330Z,2.83
2019-03-20T17:35:13.707Z,2.40
2019-03-20T17:37:42.088Z,2.75
2019-03-20T17:40:22.153Z,2.40
2019-03-20T17:42:50.577Z,2.40
2019-03-20T17:45:27.294Z,2.72
2019-03-20T17:47:55.575Z,2.25
2019-03-20T17:50:28.246Z,2.58
2019-03-20T17:52:56.631Z,3.00
2019-03-20T17:55:25.123Z,2.60
2019-03-20T17:57:53.394Z,2.12
2019-03-20T18:00:33.098Z,3.37
2019-03-20T18:03:01.470Z,4.03
2019-03-20T18:05:29.799Z,6.47
2019-03-20T18:07:58.191Z,5.65
2019-03-20T18:10:26.475Z,5.55
2019-03-20T18:12:54.855Z,9.53
2019-03-20T18:15:23.275Z,6.35
2019-03-20T18:17:51.730Z,6.03
2019-03-20T18:20:20.593Z,6.47
2019-03-20T18:22:48.983Z,4.62
2019-03-20T18:25:17.347Z,5.15
2019-03-20T18:27:45.747Z,7.17
2019-03-20T18:30:23.368Z,6.10
2019-03-20T18:32:51.905Z,5.40
2019-03-20T18:35:20.261Z,4.83
2019-03-20T18:37:48.605Z,4.00
2019-03-20T18:40:27.658Z,4.67
2019-03-20T18:43:01.623Z,6.72
2019-03-20T18:45:29.240Z,7.95
2019-03-20T18:47:57.665Z,5.33
2019-03-20T18:50:26.221Z,7.72
2019-03-20T18:52:54.923Z,9.33
2019-03-20T18:55:23.497Z,9.18
2019-03-20T18:57:52.389Z,11.20
2019-03-20T19:00:23.265Z,8.40
2019-03-20T19:02:53.809Z,13.10
2019-03-20T19:05:25.731Z,6.97
2019-03-20T19:07:54.075Z,9.05
2019-03-20T19:10:24.081Z,8.60
2019-03-20T19:12:52.987Z,9.98
2019-03-20T19:15:21.692Z,9.10
2019-03-20T19:17:50.116Z,7.83
2019-03-20T19:20:20.001Z,8.18
2019-03-20T19:22:48.786Z,7.40
2019-03-20T19:25:18.064Z,8.80
2019-03-20T19:27:46.527Z,6.17
2019-03-20T19:30:18.006Z,4.47
2019-03-20T19:32:46.367Z,6.40
2019-03-20T19:35:14.664Z,6.70
2019-03-20T19:37:42.968Z,9.45
2019-03-20T19:40:20.499Z,7.92
2019-03-20T19:42:48.914Z,7.92
2019-03-20T19:45:20.306Z,6.87
2019-03-20T19:47:48.847Z,10.18
2019-03-20T19:50:19.263Z,7.45
2019-03-20T19:52:47.550Z,6.13
2019-03-20T19:55:16.831Z,7.30
2019-03-20T19:57:45.176Z,6.33
2019-03-20T20:00:18.158Z,4.90
2019-03-20T20:02:46.530Z,4.80
2019-03-20T20:05:16.003Z,6.03
2019-03-20T20:07:44.683Z,3.87
2019-03-20T20:10:16.730Z,3.70
2019-03-20T20:12:45.278Z,4.00
2019-03-20T20:15:16.794Z,7.17
2019-03-20T20:17:46.933Z,5.30
2019-03-20T20:20:20.349Z,3.22
2019-03-20T20:22:48.704Z,3.12
2019-03-20T20:25:17.057Z,2.85
2019-03-20T20:27:45.521Z,2.98
2019-03-20T20:30:18.086Z,3.37
2019-03-20T20:32:46.464Z,3.98
2019-03-20T20:35:15.685Z,3.80
2019-03-20T20:37:46.237Z,4.70
2019-03-20T20:40:29.292Z,4.30
2019-03-20T20:42:57.667Z,3.80
2019-03-20T20:45:25.933Z,4.30
2019-03-20T20:47:54.322Z,4.35
2019-03-20T20:50:22.659Z,3.70
2019-03-20T20:52:51.041Z,4.15
2019-03-20T20:55:21.797Z,3.80
2019-03-20T20:57:50.243Z,5.50
2019-03-20T21:00:20.176Z,4.10
2019-03-20T21:02:48.559Z,5.25
2019-03-20T21:05:16.923Z,4.03
2019-03-20T21:07:45.218Z,4.47
2019-03-20T21:10:15.147Z,5.28
2019-03-20T21:12:55.623Z,4.87
2019-03-20T21:15:32.246Z,5.20
2019-03-20T21:18:16.216Z,9.50
2019-03-20T21:20:45.032Z,9.65
2019-03-20T21:23:33.228Z,9.48
2019-03-20T21:26:02.850Z,7.97
2019-03-20T21:28:52.706Z,5.90
2019-03-20T21:31:24.391Z,6.90
2019-03-20T21:33:56.080Z,6.00
2019-03-20T21:36:42.729Z,6.47
2019-03-20T21:39:11.236Z,8.15
2019-03-20T21:42:17.572Z,6.85
2019-03-20T21:45:18.223Z,5.70
2019-03-20T21:47:46.687Z,7.27
2019-03-20T21:50:50.464Z,9.43
2019-03-20T21:53:30.771Z,8.73
2019-03-20T21:56:31.067Z,7.92
2019-03-20T21:59:11.644Z,6.50
2019-03-20T22:02:10.465Z,7.73
2019-03-20T22:04:38.953Z,8.90
2019-03-20T22:07:09.244Z,6.53
2019-03-20T22:09:52.831Z,5.60
2019-03-20T22:12:27.287Z,5.83
2019-03-20T22:15:16.989Z,6.90
2019-03-20T22:18:09.837Z,6.55
2019-03-20T22:20:43.934Z,6.37
2019-03-20T22:23:30.233Z,6.70
2019-03-20T22:26:18.537Z,7.40
2019-03-20T22:29:04.901Z,7.25
2019-03-20T22:31:45.118Z,8.53
2019-03-20T22:34:31.966Z,8.13
2019-03-20T22:37:00.618Z,6.60
2019-03-20T22:39:51.574Z,6.65
2019-03-20T22:42:25.963Z,6.60
2019-03-20T22:45:00.321Z,4.83
2019-03-20T22:47:51.322Z,4.22
2019-03-20T22:50:22.850Z,3.90
2019-03-20T22:53:09.280Z,6.00
2019-03-20T22:55:43.304Z,6.10
2019-03-20T22:58:20.398Z,6.92
2019-03-20T23:00:52.042Z,9.28
2019-03-20T23:03:32.938Z,8.83
2019-03-20T23:06:01.460Z,9.33
2019-03-20T23:08:29.933Z,7.17
2019-03-20T23:10:58.464Z,6.60
2019-03-20T23:13:27.073Z,6.80
2019-03-20T23:15:55.588Z,6.20
2019-03-20T23:18:24.379Z,7.10
2019-03-20T23:20:54.544Z,7.05
2019-03-20T23:23:23.166Z,6.35
2019-03-20T23:25:51.658Z,5.97
2019-03-20T23:28:20.623Z,6.80
2019-03-20T23:30:49.061Z,6.08
2019-03-20T23:33:17.527Z,6.10
2019-03-20T23:35:46.072Z,5.55
2019-03-20T23:38:14.543Z,5.60
2019-03-20T23:40:42.983Z,5.78
2019-03-20T23:43:12.898Z,5.90
2019-03-20T23:45:41.410Z,7.12
2019-03-20T23:48:18.910Z,7.17
2019-03-20T23:50:49.494Z,8.03
2019-03-20T23:53:18.391Z,7.70
2019-03-20T23:55:46.940Z,7.72
2019-03-20T23:58:15.451Z,7.95
